Time;durP1;ratioP1;P1;durP2;ratioP2;P2;SDS_P1;SDS_P2;PMS_P1;PMS_P2;Temp;Humidity;BMP_temperature;BMP_pressure;BME280_temperature;BME280_humidity;BME280_pressure;Samples;Min_cycle;Max_cycle;Signal;HPM_P1;HPM_P2
2022/11/14 00:02:25;;;;;;;34.33;24.77;;;;;;;0.41;100.00;98778.50;15272958;19;20327;-53
2022/11/14 00:08:16;;;;;;;36.53;26.30;;;;;;;0.47;100.00;98772.00;15275189;19;20349;-50
2022/11/14 00:14:00;;;;;;;41.47;26.42;;;;;;;0.57;100.00;98789.09;15273659;19;20030;-50
2022/11/14 00:19:43;;;;;;;50.95;32.85;;;;;;;0.76;100.00;98793.34;15272880;19;20478;-50
2022/11/14 00:25:29;;;;;;;57.58;36.40;;;;;;;1.05;100.00;98804.00;15269705;19;20050;-52
2022/11/14 00:31:13;;;;;;;36.30;26.17;;;;;;;1.00;100.00;98804.28;15271448;19;20018;-51
2022/11/14 00:36:57;;;;;;;26.15;20.70;;;;;;;0.87;100.00;98800.63;15274815;19;20046;-50
2022/11/14 00:42:43;;;;;;;24.42;18.30;;;;;;;0.80;100.00;98794.00;15270268;19;20014;-53
2022/11/14 00:48:27;;;;;;;28.98;20.88;;;;;;;0.77;100.00;98784.41;15286258;19;20089;-53
2022/11/14 00:54:10;;;;;;;30.10;22.23;;;;;;;0.86;100.00;98777.72;15287944;19;20018;-54
2022/11/14 01:00:02;;;;;;;36.05;25.05;;;;;;;0.98;100.00;98770.84;15284284;19;20419;-50
2022/11/14 01:05:47;;;;;;;42.85;29.05;;;;;;;1.14;100.00;98755.69;15286725;19;20094;-53
2022/11/14 01:11:31;;;;;;;48.85;30.70;;;;;;;1.35;100.00;98755.34;15282734;19;20074;-54
2022/11/14 01:17:16;;;;;;;45.88;29.33;;;;;;;1.45;100.00;98753.81;15286039;19;20702;-49
2022/11/14 01:23:00;;;;;;;35.22;24.17;;;;;;;1.44;100.00;98751.22;15282905;19;20011;-53
2022/11/14 01:28:44;;;;;;;28.17;20.85;;;;;;;1.33;100.00;98731.50;15279926;19;20018;-49
2022/11/14 01:34:31;;;;;;;24.25;18.10;;;;;;;1.16;100.00;98724.59;15283765;19;20011;-53
2022/11/14 01:40:14;;;;;;;23.95;17.73;;;;;;;1.09;100.00;98717.97;15281491;19;20467;-50
2022/11/14 01:46:04;;;;;;;31.08;21.92;;;;;;;1.06;100.00;98692.44;15283417;19;20015;-49
2022/11/14 01:51:54;;;;;;;39.28;26.17;;;;;;;1.14;100.00;98691.97;15284018;19;20019;-50
2022/11/14 01:57:40;;;;;;;23.95;16.70;;;;;;;1.08;100.00;98689.72;15280700;19;20026;-51
2022/11/14 02:03:23;;;;;;;18.58;15.27;;;;;;;0.97;100.00;98668.31;15273641;19;20014;-51
2022/11/14 02:09:11;;;;;;;22.42;17.83;;;;;;;0.92;100.00;98681.84;15280774;19;20022;-51
2022/11/14 02:14:57;;;;;;;29.92;21.08;;;;;;;0.84;100.00;98663.75;15279706;19;20015;-53
2022/11/14 02:20:47;;;;;;;34.22;23.88;;;;;;;0.85;100.00;98657.50;15277381;19;20073;-52
2022/11/14 02:26:31;;;;;;;47.28;30.27;;;;;;;0.96;100.00;98659.47;15282679;19;20015;-52
2022/11/14 02:32:15;;;;;;;29.63;21.33;;;;;;;0.85;100.00;98646.91;15277742;19;20018;-51
2022/11/14 02:38:00;;;;;;;20.20;16.05;;;;;;;0.71;100.00;98644.22;15281961;19;20019;-52
2022/11/14 02:43:44;;;;;;;14.57;12.98;;;;;;;0.52;100.00;98639.19;15274957;19;20351;-51
2022/11/14 02:49:28;;;;;;;13.48;11.48;;;;;;;0.36;100.00;98626.84;15280265;19;20006;-52
2022/11/14 02:55:15;;;;;;;19.48;15.02;;;;;;;0.17;100.00;98629.75;15281582;19;20636;-54
2022/11/14 03:01:04;;;;;;;16.90;14.27;;;;;;;0.11;100.00;98619.50;15275572;19;20011;-51
2022/11/14 03:06:57;;;;;;;16.50;13.88;;;;;;;0.03;100.00;98619.94;15271230;19;20010;-51
2022/11/14 03:12:43;;;;;;;19.45;15.25;;;;;;;-0.10;100.00;98603.94;15279302;19;20459;-50
2022/11/14 03:18:26;;;;;;;31.27;22.88;;;;;;;-0.05;100.00;98601.84;15281530;19;20022;-50
2022/11/14 03:24:09;;;;;;;35.10;24.42;;;;;;;-0.04;100.00;98603.56;15275930;19;20014;-54
2022/11/14 03:29:54;;;;;;;37.88;25.83;;;;;;;0.01;100.00;98613.03;15272056;19;20086;-50
2022/11/14 03:35:38;;;;;;;32.50;22.20;;;;;;;-0.04;100.00;98621.25;15274437;19;20018;-51
2022/11/14 03:41:20;;;;;;;26.30;19.17;;;;;;;-0.20;100.00;98613.34;15274878;19;20474;-50
2022/11/14 03:47:07;;;;;;;30.75;22.05;;;;;;;-0.27;100.00;98602.25;15280670;19;20007;-51
2022/11/14 03:52:51;;;;;;;97.25;28.85;;;;;;;-0.28;100.00;98599.69;15282461;19;20015;-50
2022/11/14 03:58:34;;;;;;;40.40;27.17;;;;;;;-0.31;100.00;98590.13;15279454;19;20383;-54
2022/11/14 04:04:19;;;;;;;40.28;25.55;;;;;;;-0.32;100.00;98589.28;15270863;19;20030;-50
2022/11/14 04:10:03;;;;;;;36.00;23.55;;;;;;;-0.35;100.00;98578.00;15268978;19;20038;-50
2022/11/14 04:15:46;;;;;;;36.70;24.35;;;;;;;-0.38;100.00;98584.34;15277614;19;20422;-51
2022/11/14 04:21:32;;;;;;;33.00;22.48;;;;;;;-0.45;100.00;98582.13;15282744;19;21020;-54
2022/11/14 04:27:16;;;;;;;43.50;27.02;;;;;;;-0.48;100.00;98556.69;15293006;19;20018;-51
2022/11/14 04:32:59;;;;;;;37.42;24.33;;;;;;;-0.49;100.00;98558.50;15293932;19;20018;-51
2022/11/14 04:38:44;;;;;;;35.10;23.40;;;;;;;-0.52;100.00;98555.16;15291192;19;20014;-53
2022/11/14 04:44:28;;;;;;;34.30;23.00;;;;;;;-0.63;100.00;98538.09;15280664;19;20497;-53
2022/11/14 04:50:13;;;;;;;36.88;24.25;;;;;;;-0.67;100.00;98514.56;15286582;19;20015;-54
2022/11/14 04:55:59;;;;;;;35.00;23.77;;;;;;;-0.70;100.00;98512.06;15287708;19;20022;-51
2022/11/14 05:01:48;;;;;;;41.03;26.23;;;;;;;-0.71;100.00;98513.06;15284880;19;20023;-51
2022/11/14 05:07:31;;;;;;;41.83;25.98;;;;;;;-0.72;100.00;98516.63;15288499;19;20018;-52
2022/11/14 05:13:16;;;;;;;33.92;21.75;;;;;;;-0.80;100.00;98514.41;15284495;19;20097;-53
2022/11/14 05:18:59;;;;;;;38.08;25.00;;;;;;;-0.81;100.00;98518.84;15288026;19;20120;-54
2022/11/14 05:24:42;;;;;;;50.88;30.75;;;;;;;-0.76;100.00;98531.81;15283886;19;20023;-56
2022/11/14 05:30:27;;;;;;;71.45;36.90;;;;;;;-0.65;100.00;98526.75;15284029;19;20090;-55
2022/11/14 05:36:12;;;;;;;63.78;35.45;;;;;;;-0.59;100.00;98532.66;15288422;19;20018;-52
2022/11/14 05:41:55;;;;;;;63.97;33.67;;;;;;;-0.59;100.00;98527.34;15286603;19;20022;-52
2022/11/14 05:47:40;;;;;;;60.15;31.90;;;;;;;-0.60;100.00;98515.06;15282347;19;20014;-55
2022/11/14 05:53:24;;;;;;;55.00;31.25;;;;;;;-0.64;100.00;98520.53;15286186;19;20122;-54
2022/11/14 05:59:07;;;;;;;54.83;31.70;;;;;;;-0.67;100.00;98519.84;15300451;19;20022;-79
2022/11/14 06:04:52;;;;;;;71.75;37.17;;;;;;;-0.66;100.00;98521.56;15339658;19;20014;-81
2022/11/14 06:10:36;;;;;;;79.40;40.25;;;;;;;-0.62;100.00;98529.22;15327377;19;20010;-80
2022/11/14 06:16:21;;;;;;;99.93;47.25;;;;;;;-0.39;100.00;98534.97;15321841;19;20019;-79
2022/11/14 06:22:07;;;;;;;113.93;51.17;;;;;;;0.12;100.00;98544.38;15314206;19;20015;-80
2022/11/14 06:27:50;;;;;;;111.90;51.65;;;;;;;0.40;100.00;98558.63;15313140;19;20361;-79
2022/11/14 06:33:33;;;;;;;109.38;51.00;;;;;;;0.56;100.00;98575.28;15316911;19;20018;-78
2022/11/14 06:39:20;;;;;;;103.28;49.03;;;;;;;0.69;100.00;98571.88;15316754;19;20086;-81
2022/11/14 06:45:04;;;;;;;103.00;49.80;;;;;;;0.96;100.00;98576.41;15307761;19;20022;-80
2022/11/14 06:50:53;;;;;;;103.68;49.97;;;;;;;1.23;100.00;98595.03;15310781;19;20011;-79
2022/11/14 06:56:39;;;;;;;98.15;47.83;;;;;;;1.56;100.00;98588.47;14804492;19;9999687;-83
2022/11/14 07:02:28;;;;;;;101.68;49.15;;;;;;;1.71;100.00;98583.97;15310230;19;20862;-79
2022/11/14 07:08:12;;;;;;;89.25;45.72;;;;;;;1.83;100.00;98599.09;15313027;19;20086;-80
2022/11/14 07:14:00;;;;;;;89.00;45.13;;;;;;;1.93;100.00;98609.13;15337937;19;20014;-79
2022/11/14 07:19:43;;;;;;;89.30;44.20;;;;;;;2.03;100.00;98607.56;15297048;19;20055;-77
2022/11/14 07:25:26;;;;;;;87.32;44.15;;;;;;;2.17;100.00;98614.59;15284935;19;20015;-78
2022/11/14 07:31:14;;;;;;;83.88;43.65;;;;;;;2.32;100.00;98615.34;15294574;19;20015;-78
2022/11/14 07:36:57;;;;;;;75.38;41.72;;;;;;;2.47;100.00;98609.00;15296208;19;20011;-78
2022/11/14 07:42:40;;;;;;;66.45;38.88;;;;;;;2.66;100.00;98613.03;15300813;19;20742;-79
2022/11/14 07:48:28;;;;;;;59.88;37.30;;;;;;;2.78;100.00;98595.38;15300254;19;20011;-79
2022/11/14 07:54:13;;;;;;;57.83;36.45;;;;;;;2.97;100.00;98592.28;15301181;19;20022;-78
2022/11/14 07:59:56;;;;;;;45.35;30.98;;;;;;;3.15;100.00;98583.94;15313137;19;20014;-78
2022/11/14 08:05:43;;;;;;;40.78;29.42;;;;;;;3.26;100.00;98594.66;15308625;19;20644;-80
2022/11/14 08:17:22;;;;;;;30.58;24.17;;;;;;;3.48;100.00;98582.44;15304893;19;20015;-78
2022/11/14 08:23:13;;;;;;;31.00;23.25;;;;;;;3.61;100.00;98572.59;15308603;19;20086;-80
2022/11/14 08:28:57;;;;;;;28.33;22.73;;;;;;;3.72;100.00;98557.59;15308760;19;20422;-79
2022/11/14 08:34:40;;;;;;;26.83;20.48;;;;;;;3.86;100.00;98557.44;15309971;19;20842;-80
2022/11/14 08:40:26;;;;;;;23.77;19.05;;;;;;;4.00;100.00;98554.59;15314048;19;20014;-80
2022/11/14 08:46:12;;;;;;;20.65;18.02;;;;;;;4.12;100.00;98550.13;15311038;19;20336;-79
2022/11/14 08:51:55;;;;;;;19.30;16.85;;;;;;;4.29;100.00;98546.16;15316049;19;20014;-80
2022/11/14 08:57:41;;;;;;;17.95;15.85;;;;;;;4.40;100.00;98531.16;15310110;19;20043;-79
2022/11/14 09:03:31;;;;;;;17.65;15.50;;;;;;;4.59;100.00;98542.09;15306859;19;20019;-80
2022/11/14 09:09:14;;;;;;;14.10;11.95;;;;;;;4.69;100.00;98530.69;15314911;19;20062;-80
2022/11/14 09:14:59;;;;;;;15.40;12.15;;;;;;;4.66;100.00;98507.75;15310119;19;20014;-80
2022/11/14 09:20:42;;;;;;;21.23;15.32;;;;;;;4.77;100.00;98483.75;15315063;19;20015;-80
2022/11/14 09:26:26;;;;;;;18.60;15.30;;;;;;;5.01;100.00;98487.19;15312553;19;20022;-80
2022/11/14 09:32:11;;;;;;;17.23;14.63;;;;;;;5.25;100.00;98489.72;15307901;19;20011;-80
2022/11/14 09:37:55;;;;;;;14.90;13.40;;;;;;;5.44;100.00;98505.09;15309470;19;20010;-81
2022/11/14 09:43:56;;;;;;;14.38;12.32;;;;;;;5.80;100.00;98499.47;15317103;19;20003;-81
2022/11/14 09:49:46;;;;;;;12.77;11.18;;;;;;;6.11;100.00;98500.41;15312363;19;20019;-80
2022/11/14 09:55:31;;;;;;;9.00;8.15;;;;;;;6.45;100.00;98494.00;15305842;19;20014;-81
2022/11/14 10:01:31;;;;;;;7.13;6.53;;;;;;;6.80;100.00;98457.94;15305553;19;20022;-80
2022/11/14 10:07:29;;;;;;;7.00;6.30;;;;;;;7.15;100.00;98431.63;15299372;19;20014;-80
2022/11/14 10:13:25;;;;;;;6.07;5.47;;;;;;;7.64;100.00;98404.84;15312575;19;20018;-81
2022/11/14 10:19:20;;;;;;;5.90;5.38;;;;;;;8.01;100.00;98393.31;15322570;19;20010;-80
2022/11/14 10:25:32;;;;;;;5.85;4.85;;;;;;;8.18;100.00;98373.78;15295738;19;20010;-82
2022/11/14 10:31:30;;;;;;;4.95;4.45;;;;;;;8.49;100.00;98361.94;15305058;19;20018;-81
2022/11/14 10:37:23;;;;;;;4.43;4.03;;;;;;;8.79;100.00;98362.59;15343361;19;20010;-80
2022/11/14 10:43:23;;;;;;;4.80;4.30;;;;;;;9.00;100.00;98369.53;15304915;19;20010;-80
2022/11/14 10:49:08;;;;;;;3.83;3.42;;;;;;;9.32;100.00;98358.25;15307286;19;20686;-80
2022/11/14 10:54:58;;;;;;;3.78;3.47;;;;;;;9.49;100.00;98350.31;15301677;19;20018;-83
2022/11/14 11:00:51;;;;;;;6.22;3.47;;;;;;;9.67;100.00;98347.59;15300395;19;20018;-81
2022/11/14 11:06:35;;;;;;;4.15;3.20;;;;;;;9.85;100.00;98339.47;15299266;19;20010;-79
2022/11/14 11:12:24;;;;;;;3.40;3.10;;;;;;;10.02;100.00;98343.09;15297547;19;20018;-80
2022/11/14 11:18:27;;;;;;;3.45;3.00;;;;;;;10.13;100.00;98334.75;15302535;19;20022;-79
2022/11/14 11:24:10;;;;;;;3.13;2.83;;;;;;;10.29;100.00;98349.31;15293141;19;20018;-79
2022/11/14 11:30:07;;;;;;;3.15;2.85;;;;;;;10.45;100.00;98338.63;15296147;19;20018;-81
2022/11/14 11:35:57;;;;;;;2.95;2.65;;;;;;;10.57;100.00;98324.84;15297418;19;20038;-80
2022/11/14 11:41:42;;;;;;;2.60;2.40;;;;;;;10.80;100.00;98325.09;15297791;19;20006;-83
2022/11/14 11:47:46;;;;;;;2.83;2.42;;;;;;;10.93;100.00;98314.69;15300372;19;20267;-83
2022/11/14 11:53:37;;;;;;;2.47;2.25;;;;;;;11.16;100.00;98329.34;15305766;19;20030;-83
2022/11/14 11:59:35;;;;;;;2.60;2.40;;;;;;;11.34;100.00;98326.50;15300382;19;20014;-83
2022/11/14 12:05:25;;;;;;;3.40;2.38;;;;;;;11.52;100.00;98326.31;15298644;19;20014;-82
2022/11/14 12:11:13;;;;;;;2.10;1.90;;;;;;;11.63;100.00;98336.75;15299339;19;20006;-82
2022/11/14 12:17:16;;;;;;;3.33;2.10;;;;;;;11.76;100.00;98319.19;15287272;19;20022;-81
2022/11/14 12:23:36;;;;;;;4.95;2.17;;;;;;;11.84;100.00;98308.38;15296461;19;20014;-81
2022/11/14 12:29:46;;;;;;;3.30;1.98;;;;;;;12.00;100.00;98311.09;15297473;19;20014;-82
2022/11/14 12:35:32;;;;;;;2.42;2.10;;;;;;;12.22;100.00;98311.34;15295957;19;20281;-81
2022/11/14 12:41:25;;;;;;;2.50;1.80;;;;;;;12.40;100.00;98294.06;15302716;19;20030;-81
2022/11/14 12:47:27;;;;;;;2.50;1.80;;;;;;;12.58;100.00;98291.94;15306496;19;20022;-81
2022/11/14 12:53:40;;;;;;;4.20;2.10;;;;;;;12.67;100.00;98297.28;15318062;19;20014;-80
2022/11/14 12:59:37;;;;;;;1.92;1.83;;;;;;;12.98;100.00;98289.13;15309344;19;20462;-81
2022/11/14 13:05:45;;;;;;;3.60;2.00;;;;;;;13.24;100.00;98290.63;15307652;19;20038;-82
2022/11/14 13:24:08;;;;;;;2.40;1.70;;;;;;;13.50;100.00;98279.44;15307238;19;20014;-81
2022/11/14 13:29:51;;;;;;;8.52;2.10;;;;;;;13.63;100.00;98276.13;15310813;19;20365;-79
2022/11/14 13:36:04;;;;;;;2.00;1.70;;;;;;;13.49;100.00;98280.47;15304957;19;20022;-81
2022/11/14 13:42:23;;;;;;;2.28;1.73;;;;;;;13.19;100.00;98277.66;15308235;19;20014;-80
2022/11/14 13:48:31;;;;;;;2.25;1.80;;;;;;;13.07;100.00;98257.47;15308721;19;20014;-81
2022/11/14 13:54:20;;;;;;;2.35;1.80;;;;;;;13.01;100.00;98266.28;15333319;19;20018;-82
2022/11/14 14:00:18;;;;;;;2.42;1.90;;;;;;;13.03;100.00;98270.53;15333486;19;20014;-80
2022/11/14 14:06:14;;;;;;;1.85;1.70;;;;;;;13.00;100.00;98259.19;15341163;19;20019;-81
2022/11/14 14:12:26;;;;;;;2.55;1.80;;;;;;;12.85;100.00;98249.19;15301868;19;20014;-79
2022/11/14 14:18:23;;;;;;;3.78;1.70;;;;;;;13.02;100.00;98246.34;15303795;19;20007;-79
2022/11/14 14:24:20;;;;;;;3.72;1.70;;;;;;;13.16;100.00;98250.97;15293054;19;20022;-79
2022/11/14 14:30:09;;;;;;;4.50;1.88;;;;;;;13.30;100.00;98251.19;15298997;19;20010;-79
2022/11/14 14:36:01;;;;;;;2.00;1.75;;;;;;;13.37;100.00;98250.28;15296317;19;20032;-81
2022/11/14 14:41:44;;;;;;;;;;;;;;;13.25;100.00;98257.16;15299158;19;20018;-79
2022/11/14 14:47:41;;;;;;;4.25;1.90;;;;;;;13.21;100.00;98250.41;15297283;19;19926;-77
2022/11/14 14:53:29;;;;;;;1.77;1.67;;;;;;;12.95;100.00;98244.38;15298601;19;20015;-79
2022/11/14 14:59:24;;;;;;;1.90;1.80;;;;;;;12.66;100.00;98244.25;15297635;19;20015;-79
2022/11/14 15:05:08;;;;;;;1.92;1.80;;;;;;;12.35;100.00;98232.44;15345239;19;20518;-80
2022/11/14 15:10:54;;;;;;;3.15;2.00;;;;;;;12.05;100.00;98234.94;15304342;19;20010;-79
2022/11/14 15:16:37;;;;;;;1.90;1.80;;;;;;;11.66;100.00;98236.59;15298388;19;20078;-80
2022/11/14 15:22:33;;;;;;;2.03;1.83;;;;;;;11.31;100.00;98248.59;15298617;19;20022;-79
2022/11/14 15:28:23;;;;;;;2.20;2.00;;;;;;;11.07;100.00;98248.47;15286813;19;20094;-79
2022/11/14 15:34:12;;;;;;;2.30;2.10;;;;;;;10.64;100.00;98253.16;15291686;19;20019;-79
2022/11/14 15:39:55;;;;;;;2.08;1.85;;;;;;;10.41;100.00;98259.16;15295341;19;20014;-78
2022/11/14 15:45:48;;;;;;;2.45;2.25;;;;;;;10.21;100.00;98260.41;15289800;19;20019;-77
2022/11/14 15:51:46;;;;;;;2.50;2.30;;;;;;;9.98;100.00;98252.91;15289770;19;20018;-79
2022/11/14 15:57:29;;;;;;;2.80;2.53;;;;;;;9.81;100.00;98242.09;15284729;19;20018;-78
2022/11/14 16:03:19;;;;;;;2.88;2.63;;;;;;;9.65;100.00;98240.13;15270375;19;20018;-78
2022/11/14 16:09:02;;;;;;;3.28;2.70;;;;;;;9.48;100.00;98233.81;15289845;19;20481;-77
2022/11/14 16:14:47;;;;;;;3.20;2.90;;;;;;;9.36;100.00;98230.56;15290533;19;20015;-77
2022/11/14 16:20:38;;;;;;;3.50;3.20;;;;;;;9.13;100.00;98222.19;15304125;19;20090;-77
2022/11/14 16:26:21;;;;;;;3.03;2.83;;;;;;;8.98;100.00;98221.06;15289570;19;20470;-77
2022/11/14 16:32:04;;;;;;;5.68;3.10;;;;;;;8.82;100.00;98225.31;15297992;19;20018;-78
2022/11/14 16:37:50;;;;;;;3.58;3.28;;;;;;;8.68;100.00;98231.22;15292991;19;20010;-79
2022/11/14 16:43:33;;;;;;;3.50;3.20;;;;;;;8.56;100.00;98230.63;15300737;19;20018;-79
2022/11/14 16:49:18;;;;;;;3.70;3.40;;;;;;;8.42;100.00;98240.84;15308873;19;20030;-78
2022/11/14 16:55:06;;;;;;;3.72;3.40;;;;;;;8.29;100.00;98238.53;15299563;19;20026;-78
2022/11/14 17:00:49;;;;;;;6.22;3.78;;;;;;;8.22;100.00;98248.19;15298528;19;20019;-77
2022/11/14 17:06:32;;;;;;;4.30;3.85;;;;;;;8.18;100.00;98252.16;15292184;19;20035;-78
2022/11/14 17:12:18;;;;;;;4.72;3.97;;;;;;;8.10;100.00;98260.13;15298269;19;20641;-77
2022/11/14 17:18:01;;;;;;;4.88;4.25;;;;;;;8.04;100.00;98255.34;15307968;19;20092;-81
2022/11/14 17:23:50;;;;;;;4.63;4.22;;;;;;;8.01;100.00;98245.75;15307440;19;20014;-79
2022/11/14 17:29:36;;;;;;;4.95;4.55;;;;;;;7.97;100.00;98244.38;15310094;19;20025;-82
2022/11/14 17:35:20;;;;;;;4.82;4.43;;;;;;;7.91;100.00;98243.13;15301748;19;20010;-79
2022/11/14 17:41:08;;;;;;;4.53;4.13;;;;;;;7.81;100.00;98251.22;15319420;19;20022;-78
2022/11/14 17:46:28;;;;;;;4.97;4.47;;;;;;;7.75;100.00;98253.66;15319554;19;20022;-80
2022/11/14 17:52:12;;;;;;;5.30;4.82;;;;;;;7.66;100.00;98248.19;15295437;19;20010;-79
2022/11/14 17:57:55;;;;;;;5.22;4.80;;;;;;;7.58;100.00;98250.75;15300218;19;20078;-80
2022/11/14 18:03:49;;;;;;;5.07;4.57;;;;;;;7.49;100.00;98247.13;15296818;19;20512;-78
2022/11/14 18:09:41;;;;;;;5.57;4.87;;;;;;;7.49;100.00;98259.66;15293297;19;20026;-78
2022/11/14 18:15:25;;;;;;;5.40;4.90;;;;;;;7.46;100.00;98262.66;15289851;19;20431;-78
2022/11/14 18:21:15;;;;;;;5.60;5.10;;;;;;;7.45;100.00;98259.09;15274289;19;20022;-79
2022/11/14 18:27:00;;;;;;;6.03;4.97;;;;;;;7.46;100.00;98251.94;15297714;19;20014;-79
2022/11/14 18:32:43;;;;;;;5.82;5.32;;;;;;;7.40;100.00;98256.88;15303869;19;20019;-80
2022/11/14 18:38:29;;;;;;;5.57;5.07;;;;;;;7.37;100.00;98253.63;15295971;19;20019;-79
2022/11/14 18:44:14;;;;;;;6.20;5.57;;;;;;;7.42;100.00;98261.25;15289841;19;20026;-79
2022/11/14 18:49:58;;;;;;;5.97;5.30;;;;;;;7.49;100.00;98241.75;15300052;19;20010;-79
2022/11/14 18:55:44;;;;;;;6.30;5.70;;;;;;;7.46;100.00;98252.75;15293284;19;20015;-80
2022/11/14 19:01:30;;;;;;;5.68;5.18;;;;;;;7.42;100.00;98250.53;15291658;19;20551;-78
2022/11/14 19:07:14;;;;;;;6.50;5.90;;;;;;;7.35;100.00;98248.41;15290128;19;20018;-79
2022/11/14 19:12:59;;;;;;;6.22;5.50;;;;;;;7.32;100.00;98254.06;15292303;19;20073;-77
2022/11/14 19:18:42;;;;;;;6.30;5.70;;;;;;;7.31;100.00;98254.19;15291340;19;20026;-77
2022/11/14 19:24:26;;;;;;;6.20;5.70;;;;;;;7.28;100.00;98254.50;15289278;19;20010;-79
2022/11/14 19:30:13;;;;;;;6.85;6.15;;;;;;;7.25;100.00;98255.63;15290198;19;20082;-77
2022/11/14 19:35:56;;;;;;;7.47;6.47;;;;;;;7.18;100.00;98257.19;15281768;19;20089;-77
2022/11/14 19:41:40;;;;;;;10.82;9.82;;;;;;;7.11;100.00;98264.97;15286355;19;20014;-78
2022/11/14 19:47:26;;;;;;;7.50;6.80;;;;;;;7.09;100.00;98254.41;15280106;19;20115;-79
2022/11/14 19:53:09;;;;;;;7.40;6.65;;;;;;;7.09;100.00;98259.75;15287090;19;20019;-79
2022/11/14 19:58:55;;;;;;;7.20;6.50;;;;;;;7.08;100.00;98266.09;15287261;19;20007;-78
2022/11/14 20:04:49;;;;;;;6.35;5.75;;;;;;;7.07;100.00;98258.19;15281138;19;20577;-77
2022/11/14 20:10:46;;;;;;;8.07;6.70;;;;;;;7.02;100.00;98239.88;15283745;19;20574;-77
2022/11/14 20:16:31;;;;;;;6.20;5.55;;;;;;;7.03;100.00;98246.91;15282049;19;20010;-77
2022/11/14 20:22:18;;;;;;;6.88;6.28;;;;;;;7.06;100.00;98254.69;15283730;19;20015;-77
2022/11/14 20:28:01;;;;;;;6.70;6.05;;;;;;;7.03;100.00;98244.25;15286046;19;20078;-78
2022/11/14 20:33:49;;;;;;;6.70;6.03;;;;;;;7.01;100.00;98243.53;15285080;19;20022;-78
2022/11/14 20:39:37;;;;;;;6.88;6.18;;;;;;;7.07;100.00;98242.13;15290418;19;20050;-78
2022/11/14 20:45:21;;;;;;;6.57;5.93;;;;;;;7.11;100.00;98240.84;15288491;19;20669;-78
2022/11/14 20:51:16;;;;;;;6.55;5.95;;;;;;;7.08;100.00;98239.31;15294603;19;20023;-77
2022/11/14 20:57:03;;;;;;;6.55;5.95;;;;;;;7.03;100.00;98236.22;15345762;19;20018;-78
2022/11/14 21:02:53;;;;;;;6.30;5.70;;;;;;;6.97;100.00;98238.59;15290685;19;20533;-77
2022/11/14 21:08:37;;;;;;;6.33;5.43;;;;;;;6.83;100.00;98235.38;15298422;19;20082;-78
2022/11/14 21:14:23;;;;;;;6.57;5.85;;;;;;;6.73;100.00;98219.34;15298741;19;20018;-77
2022/11/14 21:20:07;;;;;;;7.47;5.70;;;;;;;6.69;100.00;98227.81;15300889;19;20019;-77
2022/11/14 21:25:50;;;;;;;6.57;5.97;;;;;;;6.60;100.00;98224.13;15295013;19;20415;-78
2022/11/14 21:31:38;;;;;;;6.68;5.97;;;;;;;6.51;100.00;98214.28;15300067;19;20018;-79
2022/11/14 21:37:21;;;;;;;6.80;6.10;;;;;;;6.42;100.00;98211.44;15293144;19;20011;-79
2022/11/14 21:43:04;;;;;;;6.75;5.80;;;;;;;6.35;100.00;98202.28;15295665;19;20012;-78
2022/11/14 21:48:50;;;;;;;6.22;5.60;;;;;;;6.30;100.00;98201.84;15293876;19;20365;-78
2022/11/14 21:54:33;;;;;;;6.63;6.03;;;;;;;6.31;100.00;98203.53;15297795;19;20010;-79
2022/11/14 22:00:18;;;;;;;6.35;5.60;;;;;;;6.30;100.00;98209.88;15297149;19;20010;-78
2022/11/14 22:11:27;;;;;;;6.38;5.05;;;;;;;6.19;100.00;98196.63;15332499;19;20021;-78
2022/11/14 22:17:10;;;;;;;7.00;5.65;;;;;;;6.18;100.00;98193.13;15286601;19;20473;-77
2022/11/14 22:22:53;;;;;;;6.10;5.50;;;;;;;6.19;100.00;98193.94;15289216;19;20014;-76
2022/11/14 22:28:39;;;;;;;5.53;5.03;;;;;;;6.19;100.00;98201.97;15287739;19;20015;-78
2022/11/14 22:34:22;;;;;;;7.47;5.13;;;;;;;6.19;100.00;98204.66;15291454;19;20014;-78
2022/11/14 22:40:06;;;;;;;5.72;5.22;;;;;;;6.22;100.00;98199.03;15292441;19;20014;-78
2022/11/14 22:45:59;;;;;;;5.63;5.10;;;;;;;6.25;100.00;98198.75;15291190;19;20018;-79
2022/11/14 22:51:43;;;;;;;7.45;5.55;;;;;;;6.23;100.00;98196.25;15291512;19;20014;-78
2022/11/14 22:57:26;;;;;;;8.57;5.40;;;;;;;6.23;100.00;98203.41;15289709;19;20014;-78
2022/11/14 23:03:12;;;;;;;8.45;5.57;;;;;;;6.19;100.00;98201.97;15285885;19;20018;-78
2022/11/14 23:09:06;;;;;;;5.60;5.10;;;;;;;6.17;100.00;98212.81;15290391;19;20401;-78
2022/11/14 23:14:49;;;;;;;5.75;5.15;;;;;;;6.14;100.00;98191.69;15288639;19;20019;-79
2022/11/14 23:20:35;;;;;;;7.15;5.30;;;;;;;6.10;100.00;98185.78;15284747;19;20014;-78
2022/11/14 23:26:20;;;;;;;5.57;5.00;;;;;;;6.08;100.00;98182.41;15281698;19;20015;-78
2022/11/14 23:32:03;;;;;;;5.80;5.20;;;;;;;6.06;100.00;98200.41;15285634;19;20023;-79
2022/11/14 23:37:49;;;;;;;5.20;4.60;;;;;;;6.07;100.00;98186.06;15291526;19;20018;-78
2022/11/14 23:43:38;;;;;;;4.93;4.43;;;;;;;6.09;100.00;98180.59;15294594;19;20317;-78
2022/11/14 23:49:21;;;;;;;4.57;4.18;;;;;;;6.09;100.00;98173.38;15287037;19;20015;-77
2022/11/14 23:55:06;;;;;;;4.40;4.00;;;;;;;6.10;100.00;98171.59;15289484;19;20066;-77
